KGNV/GNV METAR and TAF weather

Enter ICAO airport designator
Station Type Date Time Source
KGNV METAR 2020/08/10 18:53 UTC NOAA

KGNV 101853Z 03003KT 10SM SCT055 34/23 A3008 RMK AO2 SLP183 T03440228


Station Type Date Time Source
KGNV Decoded METAR 2020/08/10 18:53 UTC NOAA

GAINESVILLE REGIONAL AIRPORT , FL, United States (KGNV) 29-42N 082-17W 45M
Aug 10, 2020 - 02:53 PM EDT / 2020.08.10 1853 UTC
Wind: from the NNE (030 degrees) at 3 MPH (3 KT):0
Visibility: 10 mile(s):0
Sky conditions: partly cloudy
Temperature: 93.9 F (34.4 C)
Heat index: 103.3 F (39.6 C):1
Dew Point: 73.0 F (22.8 C)
Relative Humidity: 51%
Pressure (altimeter): 30.08 in. Hg (1018 hPa)
ob: KGNV 101853Z 03003KT 10SM SCT055 34/23 A3008 RMK AO2 SLP183 T03440228
cycle: 19

Station Type Date Time Source
KGNV TAF 2020/08/10 18:48 UTC NOAA

TAF KGNV 101746Z 1018/1118 29005KT P6SM SCT045 SCT250
FM102100 26008KT P6SM VCTS SCT040CB SCT120 BKN250
TEMPO 1022/1102 VRB15G25KT 3SM +TSRA BR SCT025 BKN040CB BKN070
FM110400 00000KT P6SM VCSH SCT050 BKN120 BKN250
FM111300 28003KT P6SM SCT025 SCT250

Example: see airport list